createdAt,value
2018-07-12T00:02:06.817Z,99.90
2018-07-12T00:04:46.383Z,99.90
2018-07-12T00:07:25.959Z,99.90
2018-07-12T00:10:05.553Z,99.90
2018-07-12T00:12:45.213Z,99.90
2018-07-12T00:15:24.780Z,99.90
2018-07-12T00:18:04.774Z,99.90
2018-07-12T00:20:44.717Z,99.90
2018-07-12T00:23:24.356Z,99.90
2018-07-12T00:26:04.124Z,99.90
2018-07-12T00:28:43.741Z,99.90
2018-07-12T00:31:23.472Z,99.90
2018-07-12T00:34:03.223Z,99.90
2018-07-12T00:36:42.838Z,99.90
2018-07-12T00:39:22.520Z,99.90
2018-07-12T00:42:02.318Z,99.90
2018-07-12T00:44:41.992Z,99.90
2018-07-12T00:47:21.766Z,99.90
2018-07-12T00:50:01.505Z,99.90
2018-07-12T00:52:41.182Z,99.90
2018-07-12T00:55:20.854Z,99.90
2018-07-12T00:58:00.588Z,99.90
2018-07-12T01:00:40.482Z,99.90
2018-07-12T01:03:20.022Z,99.90
2018-07-12T01:05:59.819Z,99.90
2018-07-12T01:08:39.615Z,99.90
2018-07-12T01:11:19.433Z,99.90
2018-07-12T01:13:58.867Z,99.90
2018-07-12T01:16:38.571Z,99.90
2018-07-12T01:19:18.369Z,99.90
2018-07-12T01:21:58.030Z,99.90
2018-07-12T01:24:37.646Z,99.90
2018-07-12T01:27:18.062Z,99.90
2018-07-12T01:29:57.612Z,99.90
2018-07-12T01:32:37.158Z,99.90
2018-07-12T01:35:17.019Z,99.90
2018-07-12T01:37:56.694Z,99.90
2018-07-12T01:40:36.477Z,99.90
2018-07-12T01:45:50.208Z,99.90
2018-07-12T01:48:29.984Z,99.90
2018-07-12T01:53:43.616Z,99.90
2018-07-12T01:56:24.259Z,99.90
2018-07-12T01:59:03.981Z,99.90
2018-07-12T02:01:43.734Z,99.90
2018-07-12T02:04:23.388Z,99.90
2018-07-12T02:07:03.111Z,99.90
2018-07-12T02:09:42.817Z,99.90
2018-07-12T02:12:22.513Z,99.90
2018-07-12T02:15:02.228Z,99.90
2018-07-12T02:17:41.837Z,99.90
2018-07-12T02:20:21.389Z,99.90
2018-07-12T02:25:34.575Z,99.90
2018-07-12T02:28:14.390Z,99.90
2018-07-12T02:30:54.095Z,99.90
2018-07-12T02:33:33.941Z,99.90
2018-07-12T02:36:13.501Z,99.90
2018-07-12T02:41:26.961Z,99.90
2018-07-12T02:44:06.574Z,99.90
2018-07-12T02:46:46.097Z,99.90
2018-07-12T02:49:25.847Z,99.90
2018-07-12T02:52:05.593Z,99.90
2018-07-12T02:54:45.358Z,99.90
2018-07-12T02:57:24.965Z,99.90
2018-07-12T03:00:04.688Z,99.90
2018-07-12T03:02:44.348Z,99.90
2018-07-12T03:05:24.090Z,99.90
2018-07-12T03:08:03.630Z,99.90
2018-07-12T03:10:43.394Z,99.90
2018-07-12T03:13:23.239Z,99.90
2018-07-12T03:16:02.954Z,99.90
2018-07-12T03:18:42.662Z,99.90
2018-07-12T03:23:56.143Z,99.90
2018-07-12T03:26:35.962Z,99.90
2018-07-12T03:29:15.658Z,99.90
2018-07-12T03:31:55.296Z,99.90
2018-07-12T03:34:35.127Z,99.90
2018-07-12T03:37:14.838Z,99.90
2018-07-12T03:39:54.599Z,99.90
2018-07-12T03:42:34.204Z,99.90
2018-07-12T03:45:13.878Z,99.90
2018-07-12T03:47:53.501Z,99.90
2018-07-12T03:50:33.083Z,99.90
2018-07-12T03:53:12.833Z,99.90
2018-07-12T03:55:52.425Z,99.90
2018-07-12T03:58:32.214Z,99.90
2018-07-12T04:01:12.025Z,99.90
2018-07-12T04:06:25.502Z,99.90
2018-07-12T04:09:05.897Z,99.90
2018-07-12T04:11:45.596Z,99.90
2018-07-12T04:14:25.307Z,99.90
2018-07-12T04:17:04.944Z,99.90
2018-07-12T04:19:44.592Z,99.90
2018-07-12T04:22:24.251Z,99.90
2018-07-12T04:25:03.998Z,99.90
2018-07-12T04:30:17.231Z,99.90
2018-07-12T04:32:56.813Z,99.90
2018-07-12T04:35:36.517Z,99.90
2018-07-12T04:38:16.104Z,99.90
2018-07-12T04:40:55.852Z,99.90
2018-07-12T04:43:35.892Z,99.90
2018-07-12T04:46:15.685Z,99.90
2018-07-12T04:48:55.449Z,99.90
2018-07-12T04:51:36.209Z,99.90
2018-07-12T04:54:16.058Z,99.90
2018-07-12T04:59:29.334Z,99.90
2018-07-12T05:02:08.995Z,99.90
2018-07-12T05:04:48.558Z,99.90
2018-07-12T05:07:28.349Z,99.90
2018-07-12T05:10:08.361Z,99.90
2018-07-12T05:12:47.901Z,99.90
2018-07-12T05:15:27.682Z,99.90
2018-07-12T05:18:07.498Z,99.90
2018-07-12T05:20:47.240Z,99.90
2018-07-12T05:23:26.799Z,99.90
2018-07-12T05:26:06.485Z,99.90
2018-07-12T05:28:46.614Z,99.90
2018-07-12T05:31:26.156Z,99.90
2018-07-12T05:34:05.873Z,99.90
2018-07-12T05:36:51.939Z,99.90
2018-07-12T05:39:21.391Z,99.90
2018-07-12T05:41:50.074Z,99.90
2018-07-12T05:44:18.555Z,99.90
2018-07-12T05:46:47.332Z,99.90
2018-07-12T05:49:15.772Z,99.90
2018-07-12T05:51:44.686Z,99.90
2018-07-12T05:54:13.481Z,99.90
2018-07-12T05:56:42.046Z,99.90
2018-07-12T05:59:10.643Z,99.90
2018-07-12T06:01:50.386Z,99.90
2018-07-12T06:04:18.821Z,99.90
2018-07-12T06:06:47.386Z,99.90
2018-07-12T06:09:15.814Z,99.90
2018-07-12T06:11:44.324Z,99.90
2018-07-12T06:14:13.261Z,99.90
2018-07-12T06:16:42.073Z,99.90
2018-07-12T06:19:10.712Z,99.90
2018-07-12T06:21:39.196Z,99.90
2018-07-12T06:24:07.741Z,99.90
2018-07-12T06:26:36.246Z,99.90
2018-07-12T06:29:04.811Z,99.90
2018-07-12T06:34:01.839Z,99.90
2018-07-12T06:36:30.651Z,99.90
2018-07-12T06:38:59.148Z,99.90
2018-07-12T06:41:27.618Z,99.90
2018-07-12T06:43:56.128Z,99.90
2018-07-12T06:46:24.770Z,99.90
2018-07-12T06:48:53.532Z,99.90
2018-07-12T06:51:22.045Z,99.90
2018-07-12T06:53:50.731Z,99.90
2018-07-12T06:56:19.479Z,99.90
2018-07-12T06:58:47.998Z,99.90
2018-07-12T07:01:16.498Z,99.90
2018-07-12T07:03:45.009Z,99.90
2018-07-12T07:06:13.733Z,99.90
2018-07-12T07:08:42.450Z,99.90
2018-07-12T07:13:39.618Z,99.90
2018-07-12T07:18:37.170Z,99.90
2018-07-12T07:21:05.674Z,99.90
2018-07-12T07:26:02.291Z,99.90
2018-07-12T07:28:31.117Z,99.90
2018-07-12T07:33:27.830Z,99.90
2018-07-12T07:35:56.327Z,99.90
2018-07-12T07:38:24.833Z,99.90
2018-07-12T07:43:21.953Z,99.90
2018-07-12T07:45:51.013Z,99.90
2018-07-12T07:48:19.942Z,99.90
2018-07-12T07:50:48.861Z,99.90
2018-07-12T07:53:17.558Z,99.90
2018-07-12T07:55:46.634Z,99.90
2018-07-12T07:58:15.277Z,99.90
2018-07-12T08:00:43.751Z,99.90
2018-07-12T08:03:12.455Z,99.90
2018-07-12T08:05:41.245Z,99.90
2018-07-12T08:08:09.758Z,99.90
2018-07-12T08:10:38.273Z,99.90
2018-07-12T08:13:06.930Z,99.90
2018-07-12T08:15:37.092Z,99.90
2018-07-12T08:18:05.605Z,99.90
2018-07-12T08:20:34.151Z,99.90
2018-07-12T08:23:02.603Z,99.90
2018-07-12T08:25:31.433Z,99.90
2018-07-12T08:28:11.140Z,99.90
2018-07-12T08:30:39.624Z,99.90
2018-07-12T08:33:08.129Z,99.90
2018-07-12T08:35:36.574Z,99.90
2018-07-12T09:09:34.230Z,99.90
2018-07-12T09:12:02.774Z,99.90
2018-07-12T09:14:31.503Z,99.90
2018-07-12T09:17:00.245Z,99.90
2018-07-12T09:19:28.686Z,99.90
2018-07-12T09:21:57.457Z,99.90
2018-07-12T09:24:25.921Z,99.90
2018-07-12T09:26:54.345Z,99.90
2018-07-12T09:29:22.818Z,99.90
2018-07-12T09:31:51.300Z,99.90
2018-07-12T09:34:20.014Z,99.90
2018-07-12T09:36:48.974Z,99.90
2018-07-12T09:39:17.715Z,99.90
2018-07-12T09:41:46.419Z,99.90
2018-07-12T09:44:14.928Z,99.90
2018-07-12T09:46:43.528Z,99.90
2018-07-12T09:51:40.322Z,99.90
2018-07-12T09:54:08.846Z,99.90
2018-07-12T09:57:51.873Z,99.90
2018-07-12T10:00:24.579Z,99.90
2018-07-12T10:05:32.130Z,99.90
2018-07-12T10:08:05.811Z,99.90
2018-07-12T10:10:38.490Z,99.90
2018-07-12T10:13:12.480Z,99.90
2018-07-12T10:15:42.881Z,99.90
2018-07-12T10:18:16.702Z,99.90
2018-07-12T10:23:13.481Z,99.90
2018-07-12T10:25:42.073Z,99.90
2018-07-12T10:28:10.903Z,99.90
2018-07-12T10:30:39.702Z,99.90
2018-07-12T10:33:08.468Z,99.90
2018-07-12T10:35:37.129Z,99.90
2018-07-12T10:38:06.138Z,99.90
2018-07-12T10:40:34.591Z,99.90
2018-07-12T10:43:03.068Z,99.90
2018-07-12T10:45:31.603Z,99.90
2018-07-12T10:48:00.105Z,99.90
2018-07-12T10:52:56.770Z,99.90
2018-07-12T10:55:25.234Z,99.90
2018-07-12T10:57:53.870Z,99.90
2018-07-12T11:00:22.318Z,99.90
2018-07-12T11:05:20.376Z,99.90
2018-07-12T11:07:48.903Z,99.90
2018-07-12T11:10:17.401Z,99.90
2018-07-12T11:12:50.383Z,99.90
2018-07-12T11:15:18.828Z,99.90
2018-07-12T11:17:48.137Z,99.90
2018-07-12T11:20:16.659Z,99.90
2018-07-12T11:22:45.478Z,99.90
2018-07-12T11:25:13.966Z,99.90
2018-07-12T11:27:42.446Z,99.90
2018-07-12T11:30:11.025Z,99.90
2018-07-12T11:32:39.483Z,99.90
2018-07-12T11:35:08.043Z,99.90
2018-07-12T11:37:36.772Z,99.90
2018-07-12T11:40:05.667Z,99.90
2018-07-12T11:42:34.670Z,99.90
2018-07-12T11:47:31.310Z,99.90
2018-07-12T11:50:00.020Z,99.90
2018-07-12T11:52:28.590Z,99.90
2018-07-12T11:54:57.304Z,99.90
2018-07-12T11:57:25.845Z,99.90
2018-07-12T11:59:54.512Z,99.90
2018-07-12T12:02:23.144Z,99.90
2018-07-12T12:04:52.320Z,99.90
2018-07-12T12:07:21.103Z,99.90
2018-07-12T12:12:18.033Z,99.90
2018-07-12T12:14:46.968Z,99.90
2018-07-12T12:19:44.045Z,99.90
2018-07-12T12:22:12.806Z,99.90
2018-07-12T12:24:41.254Z,99.90
2018-07-12T12:27:09.817Z,99.90
2018-07-12T12:29:38.686Z,99.90
2018-07-12T12:32:07.402Z,99.90
2018-07-12T12:34:36.059Z,99.90
2018-07-12T12:37:04.628Z,99.90
2018-07-12T12:39:33.185Z,99.90
2018-07-12T12:42:01.752Z,99.90
2018-07-12T12:44:30.327Z,99.90
2018-07-12T12:46:58.834Z,99.90
2018-07-12T12:49:28.144Z,99.90
2018-07-12T12:54:25.516Z,99.90
2018-07-12T12:56:54.043Z,99.90
2018-07-12T12:59:22.969Z,99.90
2018-07-12T13:01:52.177Z,99.90
2018-07-12T13:04:20.621Z,99.90
2018-07-12T13:06:49.095Z,99.90
2018-07-12T13:09:18.283Z,99.90
2018-07-12T13:11:46.782Z,99.90
2018-07-12T13:14:15.255Z,99.60
2018-07-12T13:16:43.689Z,99.70
2018-07-12T13:19:12.753Z,98.80
2018-07-12T13:21:41.788Z,99.50
2018-07-12T13:24:10.358Z,98.90
2018-07-12T13:26:38.839Z,99.50
2018-07-12T13:29:08.319Z,99.90
2018-07-12T13:31:36.847Z,99.90
2018-07-12T13:36:33.609Z,99.90
2018-07-12T13:39:02.605Z,99.70
2018-07-12T13:41:31.124Z,98.80
2018-07-12T13:44:10.851Z,99.00
2018-07-12T13:46:39.358Z,98.90
2018-07-12T13:49:07.909Z,98.30
2018-07-12T13:51:36.603Z,98.70
2018-07-12T13:54:05.601Z,98.70
2018-07-12T13:56:34.123Z,99.60
2018-07-12T13:59:02.602Z,97.70
2018-07-12T14:01:31.344Z,97.00
2018-07-12T14:03:59.905Z,98.50
2018-07-12T14:06:28.564Z,97.90
2018-07-12T14:08:57.067Z,98.00
2018-07-12T14:11:25.559Z,98.50
2018-07-12T14:13:54.194Z,98.40
2018-07-12T14:16:23.188Z,98.00
2018-07-12T14:18:52.043Z,97.80
2018-07-12T14:21:20.594Z,97.60
2018-07-12T14:26:17.504Z,99.30
2018-07-12T14:28:46.327Z,99.00
2018-07-12T14:31:14.968Z,99.30
2018-07-12T14:33:43.602Z,97.70
2018-07-12T14:36:12.352Z,97.50
2018-07-12T14:38:40.932Z,98.80
2018-07-12T14:41:09.482Z,96.50
2018-07-12T14:43:37.965Z,96.40
2018-07-12T14:46:06.563Z,96.50
2018-07-12T14:48:35.129Z,97.00
2018-07-12T14:51:03.800Z,98.00
2018-07-12T14:53:32.262Z,98.30
2018-07-12T14:56:00.857Z,98.00
2018-07-12T14:58:29.338Z,97.70
2018-07-12T15:00:57.838Z,97.20
2018-07-12T15:03:26.376Z,97.60
2018-07-12T15:05:55.848Z,97.30
2018-07-12T15:08:24.509Z,96.30
2018-07-12T15:10:53.145Z,96.50
2018-07-12T15:13:21.680Z,94.90
2018-07-12T15:15:50.184Z,94.50
2018-07-12T15:18:18.697Z,94.40
2018-07-12T15:20:47.258Z,95.70
2018-07-12T15:23:18.863Z,95.10
2018-07-12T15:25:47.652Z,94.80
2018-07-12T15:28:16.521Z,94.90
2018-07-12T15:30:45.236Z,94.80
2018-07-12T15:35:42.805Z,93.60
2018-07-12T15:38:11.324Z,93.90
2018-07-12T15:40:39.873Z,93.60
2018-07-12T15:43:11.317Z,93.60
2018-07-12T15:48:07.949Z,93.50
2018-07-12T15:50:36.565Z,93.50
2018-07-12T15:55:33.324Z,93.30
2018-07-12T15:58:02.092Z,92.80
2018-07-12T16:00:30.693Z,92.20
2018-07-12T16:05:27.583Z,92.90
2018-07-12T16:07:56.323Z,92.60
2018-07-12T16:12:53.512Z,92.00
2018-07-12T16:15:22.150Z,92.20
2018-07-12T16:17:50.706Z,92.10
2018-07-12T16:20:19.388Z,92.30
2018-07-12T16:22:47.918Z,91.40
2018-07-12T16:25:16.488Z,92.40
2018-07-12T16:27:45.036Z,92.90
2018-07-12T16:30:13.554Z,92.60
2018-07-12T16:32:42.490Z,92.40
2018-07-12T16:35:11.018Z,92.50
2018-07-12T16:37:39.528Z,92.00
2018-07-12T16:40:08.122Z,92.00
2018-07-12T16:42:36.641Z,92.40
2018-07-12T16:45:05.239Z,92.50
2018-07-12T16:47:34.362Z,92.50
2018-07-12T16:50:02.885Z,91.40
2018-07-12T16:54:59.755Z,92.10
2018-07-12T16:57:28.251Z,91.80
2018-07-12T16:59:56.804Z,92.10
2018-07-12T17:02:25.408Z,92.60
2018-07-12T17:04:54.068Z,92.70
2018-07-12T17:07:22.694Z,91.80
2018-07-12T17:09:51.249Z,92.00
2018-07-12T17:12:19.843Z,92.50
2018-07-12T17:14:48.305Z,92.00
2018-07-12T17:17:16.965Z,92.10
2018-07-12T17:19:45.833Z,92.20
2018-07-12T17:22:14.830Z,92.20
2018-07-12T17:24:43.695Z,92.50
2018-07-12T17:27:12.332Z,92.90
2018-07-12T17:29:40.897Z,92.10
2018-07-12T17:32:09.714Z,92.40
2018-07-12T17:34:38.907Z,92.90
2018-07-12T17:37:07.553Z,92.50
2018-07-12T17:42:05.027Z,93.00
2018-07-12T17:44:33.679Z,92.90
2018-07-12T17:47:02.173Z,91.90
2018-07-12T17:49:30.818Z,91.80
2018-07-12T17:51:59.418Z,91.90
2018-07-12T17:54:27.966Z,92.00
2018-07-12T17:59:25.308Z,92.10
2018-07-12T18:01:53.868Z,92.80
2018-07-12T18:04:22.341Z,92.30
2018-07-12T18:06:51.092Z,92.60
2018-07-12T18:09:20.233Z,92.50
2018-07-12T18:11:48.999Z,92.70
2018-07-12T18:14:17.599Z,92.70
2018-07-12T18:16:46.200Z,92.80
2018-07-12T18:19:14.806Z,92.80
2018-07-12T18:21:43.553Z,92.80
2018-07-12T18:24:12.081Z,93.70
2018-07-12T18:26:40.765Z,93.80
2018-07-12T18:29:09.453Z,94.00
2018-07-12T18:31:38.038Z,93.50
2018-07-12T18:34:06.687Z,94.00
2018-07-12T18:36:35.292Z,94.00
2018-07-12T18:39:04.868Z,94.50
2018-07-12T18:41:34.431Z,94.70
2018-07-12T18:46:31.372Z,95.20
2018-07-12T18:49:00.166Z,95.70
2018-07-12T18:51:28.831Z,95.80
2018-07-12T18:53:57.505Z,96.00
2018-07-12T18:56:26.089Z,96.40
2018-07-12T18:58:54.993Z,96.70
2018-07-12T19:01:23.649Z,97.30
2018-07-12T19:03:52.949Z,97.70
2018-07-12T19:06:21.638Z,98.50
2018-07-12T19:08:50.490Z,99.10
2018-07-12T19:11:18.990Z,99.80
2018-07-12T19:13:48.795Z,99.90
2018-07-12T19:16:18.056Z,99.90
2018-07-12T19:18:46.766Z,99.90
2018-07-12T19:23:43.760Z,99.90
2018-07-12T19:26:12.351Z,99.90
2018-07-12T19:28:40.971Z,99.90
2018-07-12T19:31:09.520Z,99.90
2018-07-12T19:33:38.119Z,99.90
2018-07-12T19:36:06.700Z,99.90
2018-07-12T19:38:35.424Z,99.90
2018-07-12T19:43:32.194Z,99.90
2018-07-12T19:46:00.753Z,99.90
2018-07-12T19:48:29.807Z,99.90
2018-07-12T19:50:58.542Z,99.90
2018-07-12T19:53:27.585Z,99.90
2018-07-12T19:55:56.442Z,99.90
2018-07-12T20:00:53.628Z,99.90
2018-07-12T20:03:22.256Z,99.90
2018-07-12T20:05:50.925Z,99.90
2018-07-12T20:08:19.542Z,99.90
2018-07-12T20:10:48.683Z,99.90
2018-07-12T20:13:17.235Z,99.90
2018-07-12T20:20:42.599Z,99.90
2018-07-12T20:23:11.126Z,99.90
2018-07-12T20:25:39.669Z,99.90
2018-07-12T20:28:08.161Z,99.90
2018-07-12T20:30:37.024Z,99.90
2018-07-12T20:33:05.645Z,99.90
2018-07-12T20:35:34.150Z,99.90
2018-07-12T20:38:02.630Z,99.90
2018-07-12T20:40:31.610Z,99.90
2018-07-12T20:43:00.287Z,99.90
2018-07-12T20:45:28.997Z,99.90
2018-07-12T20:47:57.577Z,99.90
2018-07-12T20:50:26.148Z,99.90
2018-07-12T20:52:54.653Z,99.90
2018-07-12T20:55:23.197Z,99.90
2018-07-12T20:57:51.729Z,99.90
2018-07-12T21:00:20.329Z,99.90
2018-07-12T21:02:48.787Z,99.90
2018-07-12T21:05:17.272Z,99.90
2018-07-12T21:10:14.770Z,99.90
2018-07-12T21:12:43.303Z,99.90
2018-07-12T21:15:11.911Z,99.90
2018-07-12T21:17:40.370Z,99.90
2018-07-12T21:20:09.756Z,99.90
2018-07-12T21:22:38.238Z,99.90
2018-07-12T21:25:07.499Z,99.90
2018-07-12T21:27:36.009Z,99.90
2018-07-12T21:30:07.239Z,99.90
2018-07-12T21:32:35.746Z,99.90
2018-07-12T21:35:04.314Z,99.90
2018-07-12T21:37:33.082Z,99.90
2018-07-12T21:40:01.738Z,99.90
2018-07-12T21:44:58.430Z,99.90
2018-07-12T21:47:26.961Z,99.90
2018-07-12T21:49:55.474Z,99.90
2018-07-12T21:52:24.025Z,99.90
2018-07-12T21:54:52.709Z,99.90
2018-07-12T21:57:21.217Z,99.90
2018-07-12T21:59:50.692Z,99.90
2018-07-12T22:02:19.266Z,99.90
2018-07-12T22:04:47.759Z,99.90
2018-07-12T22:08:35.351Z,99.90
2018-07-12T22:11:05.029Z,99.90
2018-07-12T22:16:03.216Z,99.90
2018-07-12T22:18:31.709Z,99.90
2018-07-12T22:21:00.223Z,99.90
2018-07-12T22:23:29.615Z,99.90
2018-07-12T22:25:58.106Z,99.90
2018-07-12T22:28:26.722Z,99.90
2018-07-12T22:30:55.217Z,99.90
2018-07-12T22:33:23.876Z,99.90
2018-07-12T22:35:52.359Z,99.90
2018-07-12T22:38:21.231Z,99.90
2018-07-12T22:40:49.762Z,99.90
2018-07-12T22:43:18.271Z,99.90
2018-07-12T22:45:46.870Z,99.90
2018-07-12T22:48:15.556Z,99.90
2018-07-12T22:50:44.031Z,99.90
2018-07-12T22:53:12.581Z,99.90
2018-07-12T22:55:41.072Z,99.90
2018-07-12T22:58:09.637Z,99.90
2018-07-12T23:03:06.312Z,99.90
2018-07-12T23:05:34.843Z,99.90
2018-07-12T23:08:03.334Z,99.90
2018-07-12T23:10:31.874Z,99.90
2018-07-12T23:13:00.390Z,99.90
2018-07-12T23:15:28.837Z,99.90
2018-07-12T23:17:57.302Z,99.90
2018-07-12T23:20:25.743Z,99.90
2018-07-12T23:22:54.874Z,99.90
2018-07-12T23:25:23.452Z,99.90
2018-07-12T23:27:51.909Z,99.90
2018-07-12T23:30:20.382Z,99.90
2018-07-12T23:32:49.111Z,99.90
2018-07-12T23:35:17.635Z,99.90
2018-07-12T23:37:46.162Z,99.90
2018-07-12T23:40:15.121Z,99.90
2018-07-12T23:42:43.721Z,99.90
2018-07-12T23:45:12.179Z,99.90
2018-07-12T23:47:40.682Z,99.90
2018-07-12T23:50:09.124Z,99.90
2018-07-12T23:52:37.601Z,99.90
2018-07-12T23:55:06.291Z,99.90
2018-07-12T23:57:34.870Z,99.90
